sensor_id;sensor_type;location;lat;lon;timestamp;temperature;humidity
34434;DHT22;34290;48.562;13.384;2022-07-25T00:01:32;16.50;99.90
34434;DHT22;34290;48.562;13.384;2022-07-25T00:03:59;16.50;99.90
34434;DHT22;34290;48.562;13.384;2022-07-25T00:06:27;16.50;99.90
34434;DHT22;34290;48.562;13.384;2022-07-25T00:08:55;17.60;99.90
34434;DHT22;34290;48.562;13.384;2022-07-25T00:11:22;16.30;99.90
34434;DHT22;34290;48.562;13.384;2022-07-25T00:13:49;16.30;99.90
34434;DHT22;34290;48.562;13.384;2022-07-25T00:16:16;16.30;99.90
34434;DHT22;34290;48.562;13.384;2022-07-25T00:18:43;16.30;99.90
34434;DHT22;34290;48.562;13.384;2022-07-25T00:21:11;16.20;99.90
34434;DHT22;34290;48.562;13.384;2022-07-25T00:23:38;16.20;99.90
34434;DHT22;34290;48.562;13.384;2022-07-25T00:26:07;16.10;99.90
34434;DHT22;34290;48.562;13.384;2022-07-25T00:28:36;16.00;99.90
34434;DHT22;34290;48.562;13.384;2022-07-25T00:31:03;16.00;99.90
34434;DHT22;34290;48.562;13.384;2022-07-25T00:33:30;16.00;99.90
34434;DHT22;34290;48.562;13.384;2022-07-25T00:35:58;15.90;99.90
34434;DHT22;34290;48.562;13.384;2022-07-25T00:38:25;15.90;99.90
34434;DHT22;34290;48.562;13.384;2022-07-25T00:40:52;15.90;99.90
34434;DHT22;34290;48.562;13.384;2022-07-25T00:43:20;15.90;99.90
34434;DHT22;34290;48.562;13.384;2022-07-25T00:45:47;15.80;99.90
34434;DHT22;34290;48.562;13.384;2022-07-25T00:48:14;15.80;99.90
34434;DHT22;34290;48.562;13.384;2022-07-25T00:50:42;15.80;99.90
34434;DHT22;34290;48.562;13.384;2022-07-25T00:53:09;15.80;99.90
34434;DHT22;34290;48.562;13.384;2022-07-25T00:55:36;15.80;99.90
34434;DHT22;34290;48.562;13.384;2022-07-25T00:58:03;15.80;99.90
34434;DHT22;34290;48.562;13.384;2022-07-25T01:00:32;15.70;99.90
34434;DHT22;34290;48.562;13.384;2022-07-25T01:02:59;15.60;99.90
34434;DHT22;34290;48.562;13.384;2022-07-25T01:05:26;15.50;99.90
34434;DHT22;34290;48.562;13.384;2022-07-25T01:07:53;15.50;99.90
34434;DHT22;34290;48.562;13.384;2022-07-25T01:10:20;15.40;99.90
34434;DHT22;34290;48.562;13.384;2022-07-25T01:12:48;15.40;99.90
34434;DHT22;34290;48.562;13.384;2022-07-25T01:15:16;15.40;99.90
34434;DHT22;34290;48.562;13.384;2022-07-25T01:17:45;15.40;99.90
34434;DHT22;34290;48.562;13.384;2022-07-25T01:20:15;15.30;99.90
34434;DHT22;34290;48.562;13.384;2022-07-25T01:22:42;15.30;99.90
34434;DHT22;34290;48.562;13.384;2022-07-25T01:25:10;15.30;99.90
34434;DHT22;34290;48.562;13.384;2022-07-25T01:27:37;15.30;99.90
34434;DHT22;34290;48.562;13.384;2022-07-25T01:30:06;15.30;99.90
34434;DHT22;34290;48.562;13.384;2022-07-25T01:32:35;15.20;99.90
34434;DHT22;34290;48.562;13.384;2022-07-25T01:35:03;15.20;99.90
34434;DHT22;34290;48.562;13.384;2022-07-25T01:37:32;15.10;99.90
34434;DHT22;34290;48.562;13.384;2022-07-25T01:39:59;15.10;99.90
34434;DHT22;34290;48.562;13.384;2022-07-25T01:42:26;15.10;99.90
34434;DHT22;34290;48.562;13.384;2022-07-25T01:44:53;15.10;99.90
34434;DHT22;34290;48.562;13.384;2022-07-25T01:47:21;15.10;99.90
34434;DHT22;34290;48.562;13.384;2022-07-25T01:49:48;15.00;99.90
34434;DHT22;34290;48.562;13.384;2022-07-25T01:52:15;15.10;99.90
34434;DHT22;34290;48.562;13.384;2022-07-25T01:54:44;15.00;99.90
34434;DHT22;34290;48.562;13.384;2022-07-25T01:57:15;15.10;99.90
34434;DHT22;34290;48.562;13.384;2022-07-25T01:59:42;15.10;99.90
34434;DHT22;34290;48.562;13.384;2022-07-25T02:02:09;15.00;99.90
34434;DHT22;34290;48.562;13.384;2022-07-25T02:04:36;15.00;99.90
34434;DHT22;34290;48.562;13.384;2022-07-25T02:07:04;14.90;99.90
34434;DHT22;34290;48.562;13.384;2022-07-25T02:09:31;14.90;99.90
34434;DHT22;34290;48.562;13.384;2022-07-25T02:11:59;14.90;99.90
34434;DHT22;34290;48.562;13.384;2022-07-25T02:14:26;14.90;99.90
34434;DHT22;34290;48.562;13.384;2022-07-25T02:16:53;14.90;99.90
34434;DHT22;34290;48.562;13.384;2022-07-25T02:19:20;14.80;99.90
34434;DHT22;34290;48.562;13.384;2022-07-25T02:21:50;14.80;99.90
34434;DHT22;34290;48.562;13.384;2022-07-25T02:24:17;14.80;99.90
34434;DHT22;34290;48.562;13.384;2022-07-25T02:26:44;14.80;99.90
34434;DHT22;34290;48.562;13.384;2022-07-25T02:29:13;14.80;99.90
34434;DHT22;34290;48.562;13.384;2022-07-25T02:31:40;14.70;99.90
34434;DHT22;34290;48.562;13.384;2022-07-25T02:34:07;14.70;99.90
34434;DHT22;34290;48.562;13.384;2022-07-25T02:36:34;14.70;99.90
34434;DHT22;34290;48.562;13.384;2022-07-25T02:39:01;14.70;99.90
34434;DHT22;34290;48.562;13.384;2022-07-25T02:41:29;14.60;99.90
34434;DHT22;34290;48.562;13.384;2022-07-25T02:43:56;14.60;99.90
34434;DHT22;34290;48.562;13.384;2022-07-25T02:46:24;14.60;99.90
34434;DHT22;34290;48.562;13.384;2022-07-25T02:48:52;14.60;99.90
34434;DHT22;34290;48.562;13.384;2022-07-25T02:51:19;14.50;99.90
34434;DHT22;34290;48.562;13.384;2022-07-25T02:53:46;14.50;99.90
34434;DHT22;34290;48.562;13.384;2022-07-25T02:56:13;14.50;99.90
34434;DHT22;34290;48.562;13.384;2022-07-25T02:58:40;14.50;99.90
34434;DHT22;34290;48.562;13.384;2022-07-25T03:01:07;14.50;99.90
34434;DHT22;34290;48.562;13.384;2022-07-25T03:03:36;14.40;99.90
34434;DHT22;34290;48.562;13.384;2022-07-25T03:06:03;14.40;99.90
34434;DHT22;34290;48.562;13.384;2022-07-25T03:08:30;14.40;99.90
34434;DHT22;34290;48.562;13.384;2022-07-25T03:10:57;14.30;99.90
34434;DHT22;34290;48.562;13.384;2022-07-25T03:13:26;14.20;99.90
34434;DHT22;34290;48.562;13.384;2022-07-25T03:15:53;14.20;99.90
34434;DHT22;34290;48.562;13.384;2022-07-25T03:18:20;14.20;99.90
34434;DHT22;34290;48.562;13.384;2022-07-25T03:20:48;14.20;99.90
34434;DHT22;34290;48.562;13.384;2022-07-25T03:23:15;14.10;99.90
34434;DHT22;34290;48.562;13.384;2022-07-25T03:25:42;14.10;99.90
34434;DHT22;34290;48.562;13.384;2022-07-25T03:28:09;14.10;99.90
34434;DHT22;34290;48.562;13.384;2022-07-25T03:30:36;14.10;99.90
34434;DHT22;34290;48.562;13.384;2022-07-25T03:33:03;14.10;99.90
34434;DHT22;34290;48.562;13.384;2022-07-25T03:35:30;14.10;99.90
34434;DHT22;34290;48.562;13.384;2022-07-25T03:37:59;14.10;99.90
34434;DHT22;34290;48.562;13.384;2022-07-25T03:40:26;14.10;99.90
34434;DHT22;34290;48.562;13.384;2022-07-25T03:42:53;14.10;99.90
34434;DHT22;34290;48.562;13.384;2022-07-25T03:45:19;14.10;99.90
34434;DHT22;34290;48.562;13.384;2022-07-25T03:47:49;14.20;99.90
34434;DHT22;34290;48.562;13.384;2022-07-25T03:50:15;14.20;99.90
34434;DHT22;34290;48.562;13.384;2022-07-25T03:52:42;14.20;99.90
34434;DHT22;34290;48.562;13.384;2022-07-25T03:55:11;14.30;99.90
34434;DHT22;34290;48.562;13.384;2022-07-25T03:57:38;14.30;99.90
34434;DHT22;34290;48.562;13.384;2022-07-25T04:00:07;14.30;99.90
34434;DHT22;34290;48.562;13.384;2022-07-25T04:02:35;14.30;99.90
34434;DHT22;34290;48.562;13.384;2022-07-25T04:05:03;14.30;99.90
34434;DHT22;34290;48.562;13.384;2022-07-25T04:07:30;14.30;99.90
34434;DHT22;34290;48.562;13.384;2022-07-25T04:09:57;14.40;99.90
34434;DHT22;34290;48.562;13.384;2022-07-25T04:12:25;14.40;99.90
34434;DHT22;34290;48.562;13.384;2022-07-25T04:14:52;14.60;99.90
34434;DHT22;34290;48.562;13.384;2022-07-25T04:17:19;14.90;99.90
34434;DHT22;34290;48.562;13.384;2022-07-25T04:19:46;14.80;99.90
34434;DHT22;34290;48.562;13.384;2022-07-25T04:22:13;15.00;99.90
34434;DHT22;34290;48.562;13.384;2022-07-25T04:24:40;15.20;99.90
34434;DHT22;34290;48.562;13.384;2022-07-25T04:27:07;15.40;99.90
34434;DHT22;34290;48.562;13.384;2022-07-25T04:29:36;15.90;99.90
34434;DHT22;34290;48.562;13.384;2022-07-25T04:32:03;16.60;99.90
34434;DHT22;34290;48.562;13.384;2022-07-25T04:34:30;16.80;99.90
34434;DHT22;34290;48.562;13.384;2022-07-25T04:37:00;16.90;99.90
34434;DHT22;34290;48.562;13.384;2022-07-25T04:39:27;17.00;99.90
34434;DHT22;34290;48.562;13.384;2022-07-25T04:41:54;17.40;99.90
34434;DHT22;34290;48.562;13.384;2022-07-25T04:44:21;18.10;99.90
34434;DHT22;34290;48.562;13.384;2022-07-25T04:46:49;18.60;99.90
34434;DHT22;34290;48.562;13.384;2022-07-25T04:49:16;18.90;99.90
34434;DHT22;34290;48.562;13.384;2022-07-25T04:51:43;19.10;99.90
34434;DHT22;34290;48.562;13.384;2022-07-25T04:54:10;19.60;99.90
34434;DHT22;34290;48.562;13.384;2022-07-25T04:56:37;19.80;99.90
34434;DHT22;34290;48.562;13.384;2022-07-25T04:59:04;20.10;99.90
34434;DHT22;34290;48.562;13.384;2022-07-25T05:01:31;20.30;99.90
34434;DHT22;34290;48.562;13.384;2022-07-25T05:03:59;20.30;99.90
34434;DHT22;34290;48.562;13.384;2022-07-25T05:06:26;20.90;99.90
34434;DHT22;34290;48.562;13.384;2022-07-25T05:08:53;21.80;99.90
34434;DHT22;34290;48.562;13.384;2022-07-25T05:11:20;22.90;99.90
34434;DHT22;34290;48.562;13.384;2022-07-25T05:13:56;23.30;99.90
34434;DHT22;34290;48.562;13.384;2022-07-25T05:16:23;23.00;99.90
34434;DHT22;34290;48.562;13.384;2022-07-25T05:18:50;22.70;99.90
34434;DHT22;34290;48.562;13.384;2022-07-25T05:21:18;23.00;99.90
34434;DHT22;34290;48.562;13.384;2022-07-25T05:23:45;23.60;99.50
34434;DHT22;34290;48.562;13.384;2022-07-25T05:26:12;24.30;98.20
34434;DHT22;34290;48.562;13.384;2022-07-25T05:28:39;25.70;96.90
34434;DHT22;34290;48.562;13.384;2022-07-25T05:31:06;27.30;95.50
34434;DHT22;34290;48.562;13.384;2022-07-25T05:33:33;28.60;94.10
34434;DHT22;34290;48.562;13.384;2022-07-25T05:36:00;29.70;92.30
34434;DHT22;34290;48.562;13.384;2022-07-25T05:38:31;30.10;90.90
34434;DHT22;34290;48.562;13.384;2022-07-25T05:40:58;30.40;90.60
34434;DHT22;34290;48.562;13.384;2022-07-25T05:43:25;31.40;88.30
34434;DHT22;34290;48.562;13.384;2022-07-25T05:45:52;31.50;87.60
34434;DHT22;34290;48.562;13.384;2022-07-25T05:48:19;31.80;85.90
34434;DHT22;34290;48.562;13.384;2022-07-25T05:50:48;32.00;84.70
34434;DHT22;34290;48.562;13.384;2022-07-25T05:53:15;31.80;84.30
34434;DHT22;34290;48.562;13.384;2022-07-25T05:55:43;32.10;82.00
34434;DHT22;34290;48.562;13.384;2022-07-25T05:58:10;32.60;81.60
34434;DHT22;34290;48.562;13.384;2022-07-25T06:00:37;33.00;81.10
34434;DHT22;34290;48.562;13.384;2022-07-25T06:03:04;33.20;79.00
34434;DHT22;34290;48.562;13.384;2022-07-25T06:05:31;33.50;78.00
34434;DHT22;34290;48.562;13.384;2022-07-25T06:07:58;33.60;78.10
34434;DHT22;34290;48.562;13.384;2022-07-25T06:10:25;33.10;79.60
34434;DHT22;34290;48.562;13.384;2022-07-25T06:12:54;32.60;80.70
34434;DHT22;34290;48.562;13.384;2022-07-25T06:15:21;32.50;80.40
34434;DHT22;34290;48.562;13.384;2022-07-25T06:17:48;32.30;81.90
34434;DHT22;34290;48.562;13.384;2022-07-25T06:20:15;32.40;81.00
34434;DHT22;34290;48.562;13.384;2022-07-25T06:22:42;32.20;77.60
34434;DHT22;34290;48.562;13.384;2022-07-25T06:25:09;32.10;78.60
34434;DHT22;34290;48.562;13.384;2022-07-25T06:27:37;32.40;77.70
34434;DHT22;34290;48.562;13.384;2022-07-25T06:30:07;32.80;76.90
34434;DHT22;34290;48.562;13.384;2022-07-25T06:32:35;33.50;76.80
34434;DHT22;34290;48.562;13.384;2022-07-25T06:35:02;34.20;76.20
34434;DHT22;34290;48.562;13.384;2022-07-25T06:37:29;34.60;75.40
34434;DHT22;34290;48.562;13.384;2022-07-25T06:39:56;34.70;75.10
34434;DHT22;34290;48.562;13.384;2022-07-25T06:42:23;34.90;75.20
34434;DHT22;34290;48.562;13.384;2022-07-25T06:44:55;35.50;73.60
34434;DHT22;34290;48.562;13.384;2022-07-25T06:47:24;36.20;73.40
34434;DHT22;34290;48.562;13.384;2022-07-25T06:49:51;36.30;72.00
34434;DHT22;34290;48.562;13.384;2022-07-25T06:52:18;36.60;73.30
34434;DHT22;34290;48.562;13.384;2022-07-25T06:54:45;35.80;72.00
34434;DHT22;34290;48.562;13.384;2022-07-25T06:57:12;35.80;72.60
34434;DHT22;34290;48.562;13.384;2022-07-25T06:59:39;35.80;72.40
34434;DHT22;34290;48.562;13.384;2022-07-25T07:02:06;35.90;73.10
34434;DHT22;34290;48.562;13.384;2022-07-25T07:04:34;36.50;72.50
34434;DHT22;34290;48.562;13.384;2022-07-25T07:07:03;36.50;70.60
34434;DHT22;34290;48.562;13.384;2022-07-25T07:09:30;36.50;70.80
34434;DHT22;34290;48.562;13.384;2022-07-25T07:11:57;36.90;69.60
34434;DHT22;34290;48.562;13.384;2022-07-25T07:14:24;37.10;69.30
34434;DHT22;34290;48.562;13.384;2022-07-25T07:16:51;37.50;69.20
34434;DHT22;34290;48.562;13.384;2022-07-25T07:19:18;36.90;69.50
34434;DHT22;34290;48.562;13.384;2022-07-25T07:21:52;37.20;68.30
34434;DHT22;34290;48.562;13.384;2022-07-25T07:24:19;37.50;68.10
34434;DHT22;34290;48.562;13.384;2022-07-25T07:26:46;37.20;68.80
34434;DHT22;34290;48.562;13.384;2022-07-25T07:29:13;37.20;68.80
34434;DHT22;34290;48.562;13.384;2022-07-25T07:31:40;37.10;68.60
34434;DHT22;34290;48.562;13.384;2022-07-25T07:34:07;37.60;68.70
34434;DHT22;34290;48.562;13.384;2022-07-25T07:36:34;37.40;67.90
34434;DHT22;34290;48.562;13.384;2022-07-25T07:39:02;37.40;68.70
34434;DHT22;34290;48.562;13.384;2022-07-25T07:41:29;37.80;69.40
34434;DHT22;34290;48.562;13.384;2022-07-25T07:43:56;37.70;68.30
34434;DHT22;34290;48.562;13.384;2022-07-25T07:46:23;37.00;67.10
34434;DHT22;34290;48.562;13.384;2022-07-25T07:48:50;36.40;67.50
34434;DHT22;34290;48.562;13.384;2022-07-25T07:51:17;36.20;69.00
34434;DHT22;34290;48.562;13.384;2022-07-25T07:53:44;36.10;68.90
34434;DHT22;34290;48.562;13.384;2022-07-25T07:56:30;36.90;68.00
34434;DHT22;34290;48.562;13.384;2022-07-25T07:58:57;37.40;67.10
34434;DHT22;34290;48.562;13.384;2022-07-25T08:01:24;36.70;67.80
34434;DHT22;34290;48.562;13.384;2022-07-25T08:03:51;37.00;67.60
34434;DHT22;34290;48.562;13.384;2022-07-25T08:06:18;37.60;68.10
34434;DHT22;34290;48.562;13.384;2022-07-25T08:08:45;37.90;65.90
34434;DHT22;34290;48.562;13.384;2022-07-25T08:11:12;38.00;66.00
34434;DHT22;34290;48.562;13.384;2022-07-25T08:13:41;38.60;66.80
34434;DHT22;34290;48.562;13.384;2022-07-25T08:16:07;39.50;65.10
34434;DHT22;34290;48.562;13.384;2022-07-25T08:18:36;38.50;65.50
34434;DHT22;34290;48.562;13.384;2022-07-25T08:21:04;38.40;65.70
34434;DHT22;34290;48.562;13.384;2022-07-25T08:23:31;38.40;65.50
34434;DHT22;34290;48.562;13.384;2022-07-25T08:26:00;39.10;64.70
34434;DHT22;34290;48.562;13.384;2022-07-25T08:28:28;39.00;65.30
34434;DHT22;34290;48.562;13.384;2022-07-25T08:30:57;38.90;65.20
34434;DHT22;34290;48.562;13.384;2022-07-25T08:33:24;39.20;64.00
34434;DHT22;34290;48.562;13.384;2022-07-25T08:35:53;38.40;64.80
34434;DHT22;34290;48.562;13.384;2022-07-25T08:38:21;38.00;66.10
34434;DHT22;34290;48.562;13.384;2022-07-25T08:40:48;38.30;65.50
34434;DHT22;34290;48.562;13.384;2022-07-25T08:43:17;38.00;65.90
34434;DHT22;34290;48.562;13.384;2022-07-25T08:45:45;38.70;65.60
34434;DHT22;34290;48.562;13.384;2022-07-25T08:48:16;37.10;66.30
34434;DHT22;34290;48.562;13.384;2022-07-25T08:50:45;37.20;67.30
34434;DHT22;34290;48.562;13.384;2022-07-25T08:53:14;36.90;66.10
34434;DHT22;34290;48.562;13.384;2022-07-25T08:55:41;36.60;68.70
34434;DHT22;34290;48.562;13.384;2022-07-25T08:58:11;37.20;67.10
34434;DHT22;34290;48.562;13.384;2022-07-25T09:00:38;38.00;67.00
34434;DHT22;34290;48.562;13.384;2022-07-25T09:03:05;38.60;65.00
34434;DHT22;34290;48.562;13.384;2022-07-25T09:05:35;37.90;65.50
34434;DHT22;34290;48.562;13.384;2022-07-25T09:08:07;37.60;65.30
34434;DHT22;34290;48.562;13.384;2022-07-25T09:10:34;37.80;64.60
34434;DHT22;34290;48.562;13.384;2022-07-25T09:13:06;38.30;65.00
34434;DHT22;34290;48.562;13.384;2022-07-25T09:15:37;38.60;65.20
34434;DHT22;34290;48.562;13.384;2022-07-25T09:18:07;38.60;64.20
34434;DHT22;34290;48.562;13.384;2022-07-25T09:20:42;38.40;64.50
34434;DHT22;34290;48.562;13.384;2022-07-25T09:23:10;37.90;65.60
34434;DHT22;34290;48.562;13.384;2022-07-25T09:25:38;36.70;65.90
34434;DHT22;34290;48.562;13.384;2022-07-25T09:28:13;36.40;67.40
34434;DHT22;34290;48.562;13.384;2022-07-25T09:30:51;36.00;67.70
34434;DHT22;34290;48.562;13.384;2022-07-25T09:33:19;36.20;69.30
34434;DHT22;34290;48.562;13.384;2022-07-25T09:35:47;37.40;66.70
34434;DHT22;34290;48.562;13.384;2022-07-25T09:38:15;36.00;69.30
34434;DHT22;34290;48.562;13.384;2022-07-25T09:40:53;36.20;68.60
34434;DHT22;34290;48.562;13.384;2022-07-25T09:43:21;36.00;67.80
34434;DHT22;34290;48.562;13.384;2022-07-25T09:45:48;35.90;67.60
34434;DHT22;34290;48.562;13.384;2022-07-25T09:48:17;36.30;67.80
34434;DHT22;34290;48.562;13.384;2022-07-25T09:50:45;36.40;68.80
34434;DHT22;34290;48.562;13.384;2022-07-25T09:53:14;36.20;67.00
34434;DHT22;34290;48.562;13.384;2022-07-25T09:55:41;35.00;69.00
34434;DHT22;34290;48.562;13.384;2022-07-25T09:58:08;34.60;69.60
34434;DHT22;34290;48.562;13.384;2022-07-25T10:00:35;34.20;70.80
34434;DHT22;34290;48.562;13.384;2022-07-25T10:03:15;33.80;71.30
34434;DHT22;34290;48.562;13.384;2022-07-25T10:06:12;33.40;73.50
34434;DHT22;34290;48.562;13.384;2022-07-25T10:08:42;33.70;71.40
34434;DHT22;34290;48.562;13.384;2022-07-25T10:11:20;34.00;71.80
34434;DHT22;34290;48.562;13.384;2022-07-25T10:13:47;34.00;72.00
34434;DHT22;34290;48.562;13.384;2022-07-25T10:16:16;33.50;72.10
34434;DHT22;34290;48.562;13.384;2022-07-25T10:18:48;32.50;72.50
34434;DHT22;34290;48.562;13.384;2022-07-25T10:21:16;32.40;73.30
34434;DHT22;34290;48.562;13.384;2022-07-25T10:23:56;32.60;75.10
34434;DHT22;34290;48.562;13.384;2022-07-25T10:26:23;32.90;73.90
34434;DHT22;34290;48.562;13.384;2022-07-25T10:28:53;33.00;73.70
34434;DHT22;34290;48.562;13.384;2022-07-25T10:31:22;32.80;74.60
34434;DHT22;34290;48.562;13.384;2022-07-25T10:33:52;32.70;74.50
34434;DHT22;34290;48.562;13.384;2022-07-25T10:36:20;32.40;74.60
34434;DHT22;34290;48.562;13.384;2022-07-25T10:38:52;32.50;75.00
34434;DHT22;34290;48.562;13.384;2022-07-25T10:41:23;32.80;74.90
34434;DHT22;34290;48.562;13.384;2022-07-25T10:43:56;32.90;74.40
34434;DHT22;34290;48.562;13.384;2022-07-25T10:46:25;32.90;74.50
34434;DHT22;34290;48.562;13.384;2022-07-25T10:49:03;32.80;74.60
34434;DHT22;34290;48.562;13.384;2022-07-25T10:51:32;32.70;75.10
34434;DHT22;34290;48.562;13.384;2022-07-25T10:54:12;32.70;74.10
34434;DHT22;34290;48.562;13.384;2022-07-25T10:56:50;32.40;75.00
34434;DHT22;34290;48.562;13.384;2022-07-25T10:59:29;32.00;74.60
34434;DHT22;34290;48.562;13.384;2022-07-25T11:01:57;31.70;75.70
34434;DHT22;34290;48.562;13.384;2022-07-25T11:04:24;31.60;75.40
34434;DHT22;34290;48.562;13.384;2022-07-25T11:06:51;31.80;75.20
34434;DHT22;34290;48.562;13.384;2022-07-25T11:09:21;31.80;76.20
34434;DHT22;34290;48.562;13.384;2022-07-25T11:11:49;32.10;76.50
34434;DHT22;34290;48.562;13.384;2022-07-25T11:14:18;32.30;75.90
34434;DHT22;34290;48.562;13.384;2022-07-25T11:16:47;32.10;75.40
34434;DHT22;34290;48.562;13.384;2022-07-25T11:19:19;32.10;75.50
34434;DHT22;34290;48.562;13.384;2022-07-25T11:21:47;32.30;75.90
34434;DHT22;34290;48.562;13.384;2022-07-25T11:24:14;32.40;75.10
34434;DHT22;34290;48.562;13.384;2022-07-25T11:26:48;32.30;74.90
34434;DHT22;34290;48.562;13.384;2022-07-25T11:29:20;32.00;74.30
34434;DHT22;34290;48.562;13.384;2022-07-25T11:31:56;31.90;77.00
34434;DHT22;34290;48.562;13.384;2022-07-25T11:34:26;31.70;76.30
34434;DHT22;34290;48.562;13.384;2022-07-25T11:36:54;32.00;77.10
34434;DHT22;34290;48.562;13.384;2022-07-25T11:39:24;32.40;75.40
34434;DHT22;34290;48.562;13.384;2022-07-25T11:42:00;32.40;74.60
34434;DHT22;34290;48.562;13.384;2022-07-25T11:44:32;32.10;73.90
34434;DHT22;34290;48.562;13.384;2022-07-25T11:46:59;32.10;74.10
34434;DHT22;34290;48.562;13.384;2022-07-25T11:49:26;32.30;75.30
34434;DHT22;34290;48.562;13.384;2022-07-25T11:51:53;32.60;75.30
34434;DHT22;34290;48.562;13.384;2022-07-25T11:54:21;32.50;75.40
34434;DHT22;34290;48.562;13.384;2022-07-25T11:56:48;32.60;73.80
34434;DHT22;34290;48.562;13.384;2022-07-25T11:59:16;32.80;75.20
34434;DHT22;34290;48.562;13.384;2022-07-25T12:01:43;33.20;75.10
34434;DHT22;34290;48.562;13.384;2022-07-25T12:04:13;33.50;74.10
34434;DHT22;34290;48.562;13.384;2022-07-25T12:06:41;33.60;73.10
34434;DHT22;34290;48.562;13.384;2022-07-25T12:09:10;33.50;73.40
34434;DHT22;34290;48.562;13.384;2022-07-25T12:11:37;33.60;73.20
34434;DHT22;34290;48.562;13.384;2022-07-25T12:14:05;33.50;75.80
34434;DHT22;34290;48.562;13.384;2022-07-25T12:16:34;33.50;72.30
34434;DHT22;34290;48.562;13.384;2022-07-25T12:19:02;33.40;73.20
34434;DHT22;34290;48.562;13.384;2022-07-25T12:21:30;33.50;74.20
34434;DHT22;34290;48.562;13.384;2022-07-25T12:23:57;33.40;73.30
34434;DHT22;34290;48.562;13.384;2022-07-25T12:26:24;33.10;73.00
34434;DHT22;34290;48.562;13.384;2022-07-25T12:28:51;33.10;73.90
34434;DHT22;34290;48.562;13.384;2022-07-25T12:31:18;33.20;73.30
34434;DHT22;34290;48.562;13.384;2022-07-25T12:33:46;33.00;72.90
34434;DHT22;34290;48.562;13.384;2022-07-25T12:36:13;33.00;73.70
34434;DHT22;34290;48.562;13.384;2022-07-25T12:38:41;32.90;73.70
34434;DHT22;34290;48.562;13.384;2022-07-25T12:41:08;33.00;74.00
34434;DHT22;34290;48.562;13.384;2022-07-25T12:43:35;33.10;72.70
34434;DHT22;34290;48.562;13.384;2022-07-25T12:46:04;33.40;73.10
34434;DHT22;34290;48.562;13.384;2022-07-25T12:48:34;33.50;72.90
34434;DHT22;34290;48.562;13.384;2022-07-25T12:51:02;33.80;72.10
34434;DHT22;34290;48.562;13.384;2022-07-25T12:53:29;33.90;71.80
34434;DHT22;34290;48.562;13.384;2022-07-25T12:55:56;34.10;72.90
34434;DHT22;34290;48.562;13.384;2022-07-25T12:58:24;34.30;72.80
34434;DHT22;34290;48.562;13.384;2022-07-25T13:00:51;34.40;73.20
34434;DHT22;34290;48.562;13.384;2022-07-25T13:03:18;34.40;70.90
34434;DHT22;34290;48.562;13.384;2022-07-25T13:05:45;34.10;71.70
34434;DHT22;34290;48.562;13.384;2022-07-25T13:08:13;34.00;71.80
34434;DHT22;34290;48.562;13.384;2022-07-25T13:10:40;34.00;71.80
34434;DHT22;34290;48.562;13.384;2022-07-25T13:13:07;33.90;72.10
34434;DHT22;34290;48.562;13.384;2022-07-25T13:15:35;33.70;72.10
34434;DHT22;34290;48.562;13.384;2022-07-25T13:18:03;33.80;72.20
34434;DHT22;34290;48.562;13.384;2022-07-25T13:20:30;33.90;73.00
34434;DHT22;34290;48.562;13.384;2022-07-25T13:23:00;34.10;72.10
34434;DHT22;34290;48.562;13.384;2022-07-25T13:25:28;34.20;71.60
34434;DHT22;34290;48.562;13.384;2022-07-25T13:27:55;34.10;71.00
34434;DHT22;34290;48.562;13.384;2022-07-25T13:30:22;34.00;71.50
34434;DHT22;34290;48.562;13.384;2022-07-25T13:32:49;33.80;72.00
34434;DHT22;34290;48.562;13.384;2022-07-25T13:35:17;34.00;73.30
34434;DHT22;34290;48.562;13.384;2022-07-25T13:37:47;34.00;71.70
34434;DHT22;34290;48.562;13.384;2022-07-25T13:40:14;33.80;72.20
34434;DHT22;34290;48.562;13.384;2022-07-25T13:42:42;33.90;72.20
34434;DHT22;34290;48.562;13.384;2022-07-25T13:45:10;33.90;73.30
34434;DHT22;34290;48.562;13.384;2022-07-25T13:47:37;34.10;72.30
34434;DHT22;34290;48.562;13.384;2022-07-25T13:50:04;34.10;72.20
34434;DHT22;34290;48.562;13.384;2022-07-25T13:52:32;34.20;72.30
34434;DHT22;34290;48.562;13.384;2022-07-25T13:54:59;34.20;71.30
34434;DHT22;34290;48.562;13.384;2022-07-25T13:57:26;34.10;71.80
34434;DHT22;34290;48.562;13.384;2022-07-25T13:59:55;34.20;71.10
34434;DHT22;34290;48.562;13.384;2022-07-25T14:02:22;34.10;71.20
34434;DHT22;34290;48.562;13.384;2022-07-25T14:04:49;34.30;71.00
34434;DHT22;34290;48.562;13.384;2022-07-25T14:07:16;34.20;71.20
34434;DHT22;34290;48.562;13.384;2022-07-25T14:09:43;34.20;71.40
34434;DHT22;34290;48.562;13.384;2022-07-25T14:12:10;34.20;71.80
34434;DHT22;34290;48.562;13.384;2022-07-25T14:14:37;34.30;70.80
34434;DHT22;34290;48.562;13.384;2022-07-25T14:17:06;34.10;71.00
34434;DHT22;34290;48.562;13.384;2022-07-25T14:19:33;34.00;70.90
34434;DHT22;34290;48.562;13.384;2022-07-25T14:22:00;34.10;70.70
34434;DHT22;34290;48.562;13.384;2022-07-25T14:24:28;34.10;69.90
34434;DHT22;34290;48.562;13.384;2022-07-25T14:26:55;34.20;69.50
34434;DHT22;34290;48.562;13.384;2022-07-25T14:29:22;34.30;69.70
34434;DHT22;34290;48.562;13.384;2022-07-25T14:31:49;34.30;69.20
34434;DHT22;34290;48.562;13.384;2022-07-25T14:34:17;34.30;69.00
34434;DHT22;34290;48.562;13.384;2022-07-25T14:36:44;34.30;69.20
34434;DHT22;34290;48.562;13.384;2022-07-25T14:39:12;34.40;69.60
34434;DHT22;34290;48.562;13.384;2022-07-25T14:41:39;34.50;69.90
34434;DHT22;34290;48.562;13.384;2022-07-25T14:44:07;34.60;69.10
34434;DHT22;34290;48.562;13.384;2022-07-25T14:46:34;34.60;67.60
34434;DHT22;34290;48.562;13.384;2022-07-25T14:49:01;34.60;68.30
34434;DHT22;34290;48.562;13.384;2022-07-25T14:51:29;34.80;68.70
34434;DHT22;34290;48.562;13.384;2022-07-25T14:53:57;34.80;68.50
34434;DHT22;34290;48.562;13.384;2022-07-25T14:56:24;34.90;66.40
34434;DHT22;34290;48.562;13.384;2022-07-25T14:58:51;34.70;65.50
34434;DHT22;34290;48.562;13.384;2022-07-25T15:01:18;34.40;66.70
34434;DHT22;34290;48.562;13.384;2022-07-25T15:03:49;34.40;67.50
34434;DHT22;34290;48.562;13.384;2022-07-25T15:06:16;34.60;68.10
34434;DHT22;34290;48.562;13.384;2022-07-25T15:08:45;34.70;67.70
34434;DHT22;34290;48.562;13.384;2022-07-25T15:11:12;34.70;69.10
34434;DHT22;34290;48.562;13.384;2022-07-25T15:13:39;33.80;68.40
34434;DHT22;34290;48.562;13.384;2022-07-25T15:16:06;34.80;69.00
34434;DHT22;34290;48.562;13.384;2022-07-25T15:18:33;34.80;67.90
34434;DHT22;34290;48.562;13.384;2022-07-25T15:21:00;34.60;67.20